createdAt,value
2022-07-28T00:01:31.672Z,47.35
2022-07-28T00:04:19.738Z,47.55
2022-07-28T00:07:07.762Z,47.69
2022-07-28T00:10:00.297Z,47.94
2022-07-28T00:12:48.986Z,47.83
2022-07-28T00:15:38.443Z,47.71
2022-07-28T00:18:26.558Z,47.53
2022-07-28T00:21:14.802Z,47.54
2022-07-28T00:24:02.850Z,47.88
2022-07-28T00:26:51.025Z,47.91
2022-07-28T00:29:49.659Z,48.06
2022-07-28T00:32:39.534Z,47.83
2022-07-28T00:35:31.113Z,47.99
2022-07-28T00:38:19.826Z,47.82
2022-07-28T00:41:13.993Z,48.04
2022-07-28T00:44:02.053Z,48.18
2022-07-28T00:46:50.601Z,48.05
2022-07-28T00:49:40.514Z,48.05
2022-07-28T00:52:28.616Z,48.34
2022-07-28T00:55:16.863Z,48.21
2022-07-28T00:58:05.163Z,48.20
2022-07-28T01:00:53.337Z,48.28
2022-07-28T01:03:44.024Z,48.31
2022-07-28T01:06:44.927Z,48.49
2022-07-28T01:09:45.214Z,48.49
2022-07-28T01:12:46.784Z,48.58
2022-07-28T01:15:38.877Z,48.61
2022-07-28T01:18:30.312Z,48.60
2022-07-28T01:21:26.561Z,48.54
2022-07-28T01:24:26.775Z,48.57
2022-07-28T01:27:30.837Z,48.96
2022-07-28T01:30:33.238Z,48.66
2022-07-28T01:33:25.855Z,49.08
2022-07-28T01:36:17.390Z,49.02
2022-07-28T01:39:05.639Z,49.16
2022-07-28T01:41:56.750Z,49.42
2022-07-28T01:44:49.787Z,49.65
2022-07-28T01:47:42.207Z,49.59
2022-07-28T01:50:31.985Z,49.46
2022-07-28T01:53:21.651Z,49.21
2022-07-28T01:56:11.268Z,49.43
2022-07-28T01:59:03.960Z,49.55
2022-07-28T02:01:54.366Z,49.83
2022-07-28T02:04:47.470Z,49.73
2022-07-28T02:07:36.329Z,49.65
2022-07-28T02:10:25.821Z,49.78
2022-07-28T02:13:14.006Z,49.84
2022-07-28T02:16:05.524Z,49.67
2022-07-28T02:18:56.310Z,49.78
2022-07-28T02:21:47.711Z,50.05
2022-07-28T02:24:37.024Z,50.02
2022-07-28T02:27:30.204Z,49.67
2022-07-28T02:30:26.134Z,49.80
2022-07-28T02:33:22.357Z,49.62
2022-07-28T02:36:26.792Z,49.73
2022-07-28T02:39:21.126Z,49.59
2022-07-28T02:42:15.105Z,49.69
2022-07-28T02:45:06.510Z,49.96
2022-07-28T02:47:58.981Z,50.05
2022-07-28T02:50:48.002Z,50.08
2022-07-28T02:53:36.386Z,50.18
2022-07-28T02:56:27.435Z,50.17
2022-07-28T02:59:15.995Z,50.21
2022-07-28T03:02:04.836Z,50.56
2022-07-28T03:05:01.721Z,50.43
2022-07-28T03:07:52.622Z,50.50
2022-07-28T03:10:41.782Z,50.73
2022-07-28T03:13:32.076Z,50.51
2022-07-28T03:16:20.363Z,50.75
2022-07-28T03:19:10.324Z,50.60
2022-07-28T03:21:58.319Z,50.83
2022-07-28T03:24:50.773Z,50.96
2022-07-28T03:27:42.640Z,51.08
2022-07-28T03:30:36.058Z,51.08
2022-07-28T03:33:24.490Z,51.04
2022-07-28T03:36:16.569Z,51.17
2022-07-28T03:39:08.625Z,51.00
2022-07-28T03:41:59.834Z,51.16
2022-07-28T03:44:49.009Z,50.91
2022-07-28T03:47:38.374Z,51.29
2022-07-28T03:50:28.434Z,51.59
2022-07-28T03:53:22.608Z,51.55
2022-07-28T03:56:10.671Z,51.62
2022-07-28T03:58:58.677Z,51.79
2022-07-28T04:01:46.801Z,51.67
2022-07-28T04:04:36.301Z,51.82
2022-07-28T04:07:24.342Z,52.00
2022-07-28T04:10:14.079Z,51.71
2022-07-28T04:13:02.209Z,51.95
2022-07-28T04:15:50.293Z,51.88
2022-07-28T04:18:38.407Z,51.69
2022-07-28T04:21:29.086Z,51.95
2022-07-28T04:24:17.387Z,51.92
2022-07-28T04:27:05.695Z,52.60
2022-07-28T04:29:53.725Z,52.32
2022-07-28T04:32:42.179Z,52.58
2022-07-28T04:35:30.310Z,52.45
2022-07-28T04:38:20.251Z,52.84
2022-07-28T04:41:08.264Z,52.40
2022-07-28T04:43:56.294Z,52.47
2022-07-28T04:46:44.503Z,52.42
2022-07-28T04:49:32.564Z,52.32
2022-07-28T04:52:25.559Z,52.52
2022-07-28T04:55:15.063Z,52.15
2022-07-28T04:58:03.593Z,51.97
2022-07-28T05:00:52.656Z,52.53
2022-07-28T05:03:40.832Z,52.62
2022-07-28T05:06:30.325Z,52.23
2022-07-28T05:09:18.903Z,52.91
2022-07-28T05:12:09.166Z,52.83
2022-07-28T05:14:57.242Z,52.16
2022-07-28T05:17:45.889Z,52.52
2022-07-28T05:20:34.347Z,51.99
2022-07-28T05:23:22.408Z,51.61
2022-07-28T05:26:10.422Z,52.31
2022-07-28T05:28:59.804Z,51.85
2022-07-28T05:31:47.932Z,52.35
2022-07-28T05:34:36.092Z,52.09
2022-07-28T05:37:24.179Z,51.66
2022-07-28T05:40:15.083Z,52.21
2022-07-28T05:43:03.076Z,51.73
2022-07-28T05:45:52.967Z,51.40
2022-07-28T05:48:41.099Z,51.51
2022-07-28T05:51:29.190Z,51.06
2022-07-28T05:54:17.550Z,51.58
2022-07-28T05:57:05.861Z,51.71
2022-07-28T05:59:53.914Z,52.29
2022-07-28T06:02:45.647Z,53.89
2022-07-28T06:05:34.191Z,53.27
2022-07-28T06:08:22.243Z,52.03
2022-07-28T06:11:11.472Z,51.64
2022-07-28T06:13:59.804Z,51.12
2022-07-28T06:16:50.959Z,50.17
2022-07-28T06:19:40.794Z,50.70
2022-07-28T06:22:28.842Z,49.72
2022-07-28T06:25:17.977Z,50.58
2022-07-28T06:28:06.433Z,49.78
2022-07-28T06:30:54.448Z,49.38
2022-07-28T06:33:42.487Z,49.26
2022-07-28T06:36:31.828Z,48.91
2022-07-28T06:39:19.892Z,48.92
2022-07-28T06:42:09.029Z,49.26
2022-07-28T06:44:59.706Z,48.86
2022-07-28T06:47:48.445Z,48.74
2022-07-28T06:50:39.196Z,48.76
2022-07-28T06:53:33.815Z,49.87
2022-07-28T06:56:22.801Z,47.72
2022-07-28T06:59:11.725Z,49.15
2022-07-28T07:02:01.839Z,48.23
2022-07-28T07:04:51.659Z,48.45
2022-07-28T07:07:43.028Z,48.39
2022-07-28T07:10:33.050Z,48.80
2022-07-28T07:13:21.112Z,48.19
2022-07-28T07:16:09.379Z,48.59
2022-07-28T07:18:57.455Z,47.30
2022-07-28T07:21:45.446Z,45.89
2022-07-28T07:24:33.550Z,45.77
2022-07-28T07:27:23.169Z,46.28
2022-07-28T07:30:12.551Z,46.71
2022-07-28T07:33:00.656Z,46.18
2022-07-28T07:35:48.680Z,45.84
2022-07-28T07:38:36.689Z,45.03
2022-07-28T07:41:24.989Z,44.86
2022-07-28T07:44:15.119Z,46.13
2022-07-28T07:47:03.669Z,46.62
2022-07-28T07:49:51.784Z,44.41
2022-07-28T07:52:39.809Z,44.56
2022-07-28T07:55:27.962Z,43.80
2022-07-28T07:58:22.669Z,43.57
2022-07-28T08:01:13.285Z,42.10
2022-07-28T08:04:01.503Z,41.18
2022-07-28T08:06:51.847Z,40.55
2022-07-28T08:09:39.838Z,39.85
2022-07-28T08:12:27.881Z,40.40
2022-07-28T08:15:16.146Z,39.96
2022-07-28T08:18:05.861Z,39.04
2022-07-28T08:20:53.912Z,40.93
2022-07-28T08:23:41.986Z,40.69
2022-07-28T08:26:30.232Z,42.34
2022-07-28T08:29:18.319Z,42.19
2022-07-28T08:32:06.953Z,42.31
2022-07-28T08:35:15.854Z,41.60
2022-07-28T08:38:05.661Z,42.95
2022-07-28T08:40:58.189Z,42.77
2022-07-28T08:43:48.512Z,41.87
2022-07-28T08:46:37.280Z,42.10
2022-07-28T08:49:25.718Z,42.21
2022-07-28T08:52:15.743Z,41.61
2022-07-28T08:55:06.541Z,43.27
2022-07-28T08:57:57.100Z,42.82
2022-07-28T09:00:48.044Z,43.65
2022-07-28T09:03:37.812Z,45.71
2022-07-28T09:06:26.879Z,45.27
2022-07-28T09:09:16.286Z,43.52
2022-07-28T09:12:06.402Z,44.72
2022-07-28T09:14:54.531Z,44.30
2022-07-28T09:17:43.476Z,42.49
2022-07-28T09:20:31.583Z,41.31
2022-07-28T09:23:42.104Z,40.68
2022-07-28T09:26:29.105Z,41.31
2022-07-28T09:29:24.875Z,40.88
2022-07-28T09:32:14.481Z,39.57
2022-07-28T09:35:02.724Z,40.55
2022-07-28T09:38:00.682Z,40.63
2022-07-28T09:40:59.815Z,41.45
2022-07-28T09:43:54.767Z,43.01
2022-07-28T09:46:43.693Z,42.15
2022-07-28T09:49:43.187Z,41.56
2022-07-28T09:52:33.028Z,40.73
2022-07-28T09:55:21.099Z,39.98
2022-07-28T09:58:10.900Z,39.65
2022-07-28T10:01:08.962Z,38.75
2022-07-28T10:03:59.414Z,37.99
2022-07-28T10:07:02.154Z,38.57
2022-07-28T10:09:57.760Z,38.54
2022-07-28T10:12:45.723Z,36.89
2022-07-28T10:15:51.434Z,37.25
2022-07-28T10:18:41.511Z,38.53
2022-07-28T10:21:32.853Z,36.45
2022-07-28T10:24:23.306Z,36.06
2022-07-28T10:27:11.425Z,36.31
2022-07-28T10:30:01.357Z,35.29
2022-07-28T10:32:49.405Z,35.25
2022-07-28T10:35:54.232Z,35.22
2022-07-28T10:38:45.363Z,35.25
2022-07-28T10:41:40.631Z,35.69
2022-07-28T10:44:29.404Z,36.58
2022-07-28T10:47:20.430Z,34.98
2022-07-28T10:50:09.568Z,36.31
2022-07-28T10:52:59.576Z,34.44
2022-07-28T10:55:52.807Z,33.86
2022-07-28T10:59:04.295Z,33.80
2022-07-28T11:01:53.028Z,34.76
2022-07-28T11:04:59.047Z,34.88
2022-07-28T11:07:47.096Z,34.49
2022-07-28T11:10:50.451Z,34.89
2022-07-28T11:13:41.103Z,35.04
2022-07-28T11:16:35.795Z,34.44
2022-07-28T11:19:36.563Z,35.06
2022-07-28T11:22:31.967Z,34.88
2022-07-28T11:25:22.666Z,34.61
2022-07-28T11:28:12.498Z,35.25
2022-07-28T11:31:00.606Z,34.70
2022-07-28T11:33:55.449Z,34.58
2022-07-28T11:37:03.806Z,36.64
2022-07-28T11:39:51.899Z,34.92
2022-07-28T11:42:40.271Z,34.58
2022-07-28T11:45:37.784Z,34.43
2022-07-28T11:48:27.966Z,34.99
2022-07-28T11:51:15.982Z,35.18
2022-07-28T11:54:04.172Z,32.50
2022-07-28T11:56:58.182Z,33.38
2022-07-28T11:59:49.806Z,33.06
2022-07-28T12:02:41.955Z,32.22
2022-07-28T12:05:34.313Z,32.24
2022-07-28T12:08:30.028Z,32.97
2022-07-28T12:11:18.459Z,32.45
2022-07-28T12:14:08.456Z,33.31
2022-07-28T12:16:57.067Z,32.69
2022-07-28T12:19:46.677Z,32.07
2022-07-28T12:22:35.286Z,32.93
2022-07-28T12:25:24.029Z,32.27
2022-07-28T12:28:20.609Z,32.01
2022-07-28T12:31:12.661Z,32.23
2022-07-28T12:34:00.986Z,32.97
2022-07-28T12:36:50.565Z,32.08
2022-07-28T12:39:42.056Z,31.80
2022-07-28T12:42:32.263Z,31.83
2022-07-28T12:45:20.587Z,30.27
2022-07-28T12:48:09.301Z,30.59
2022-07-28T12:50:57.342Z,32.55
2022-07-28T12:53:52.846Z,30.75
2022-07-28T12:56:48.320Z,31.00
2022-07-28T12:59:38.255Z,31.20
2022-07-28T13:02:37.056Z,31.36
2022-07-28T13:05:53.766Z,30.74
2022-07-28T13:08:44.759Z,31.24
2022-07-28T13:11:46.148Z,31.73
2022-07-28T13:14:42.049Z,31.30
2022-07-28T13:17:49.017Z,31.50
2022-07-28T13:20:49.026Z,32.79
2022-07-28T13:23:37.045Z,31.74
2022-07-28T13:26:25.133Z,31.78
2022-07-28T13:29:14.559Z,31.78
2022-07-28T13:32:02.716Z,32.38
2022-07-28T13:34:50.988Z,31.83
2022-07-28T13:37:39.162Z,31.71
2022-07-28T13:40:27.355Z,30.76
2022-07-28T13:43:15.446Z,31.71
2022-07-28T13:46:05.262Z,31.85
2022-07-28T13:48:58.063Z,32.17
2022-07-28T13:51:48.294Z,32.46
2022-07-28T13:54:36.541Z,31.84
2022-07-28T13:57:24.652Z,31.99
2022-07-28T14:00:16.893Z,32.11
2022-07-28T14:03:08.250Z,32.69
2022-07-28T14:05:56.880Z,31.26
2022-07-28T14:08:45.102Z,31.61
2022-07-28T14:11:36.475Z,31.84
2022-07-28T14:14:25.400Z,32.95
2022-07-28T14:17:39.962Z,32.91
2022-07-28T14:20:24.228Z,33.21
2022-07-28T14:23:12.612Z,32.93
2022-07-28T14:26:32.843Z,32.12
2022-07-28T14:29:11.482Z,31.40
2022-07-28T14:32:00.162Z,31.94
2022-07-28T14:34:48.267Z,32.03
2022-07-28T14:38:23.173Z,32.35
2022-07-28T14:40:46.663Z,32.74
2022-07-28T14:43:34.709Z,33.90
2022-07-28T14:46:29.562Z,33.22
2022-07-28T14:49:18.086Z,33.75
2022-07-28T14:52:06.778Z,33.92
2022-07-28T14:54:56.341Z,33.42
2022-07-28T14:57:52.187Z,33.50
2022-07-28T15:00:42.177Z,33.99
2022-07-28T15:03:36.042Z,34.17
2022-07-28T15:06:24.482Z,34.59
2022-07-28T15:09:12.559Z,34.50
2022-07-28T15:12:02.017Z,35.02
2022-07-28T15:14:50.129Z,33.93
2022-07-28T15:17:38.673Z,33.44
2022-07-28T15:20:26.720Z,33.70
2022-07-28T15:23:14.742Z,34.11
2022-07-28T15:26:02.793Z,33.85
2022-07-28T15:28:52.196Z,33.50
2022-07-28T15:31:41.993Z,33.09
2022-07-28T15:34:30.031Z,33.90
2022-07-28T15:37:18.019Z,34.21
2022-07-28T15:40:06.963Z,33.87
2022-07-28T15:42:55.997Z,35.11
2022-07-28T15:45:45.351Z,34.01
2022-07-28T15:48:34.963Z,34.37
2022-07-28T15:51:26.035Z,34.34
2022-07-28T15:54:15.095Z,34.07
2022-07-28T15:57:03.373Z,33.55
2022-07-28T15:59:51.373Z,33.38
2022-07-28T16:02:40.825Z,33.59
2022-07-28T16:05:29.345Z,32.85
2022-07-28T16:08:22.402Z,33.44
2022-07-28T16:11:12.196Z,33.25
2022-07-28T16:14:00.389Z,32.86
2022-07-28T16:16:48.530Z,33.38
2022-07-28T16:19:49.089Z,34.23
2022-07-28T16:22:40.134Z,33.62
2022-07-28T16:25:28.491Z,32.95
2022-07-28T16:28:16.592Z,33.38
2022-07-28T16:31:04.796Z,33.26
2022-07-28T16:33:52.838Z,32.65
2022-07-28T16:36:42.290Z,32.34
2022-07-28T16:39:30.350Z,32.32
2022-07-28T16:42:18.433Z,32.83
2022-07-28T16:45:07.485Z,33.19
2022-07-28T16:47:55.813Z,33.09
2022-07-28T16:50:46.051Z,33.71
2022-07-28T16:53:35.466Z,32.96
2022-07-28T16:56:23.541Z,33.86
2022-07-28T16:59:11.600Z,33.68
2022-07-28T17:01:59.723Z,33.94
2022-07-28T17:04:48.622Z,33.66
2022-07-28T17:07:41.939Z,34.27
2022-07-28T17:10:34.203Z,34.74
2022-07-28T17:13:25.665Z,34.57
2022-07-28T17:16:13.919Z,34.94
2022-07-28T17:19:02.019Z,34.43
2022-07-28T17:21:50.062Z,35.18
2022-07-28T17:24:38.119Z,34.88
2022-07-28T17:27:37.358Z,34.81
2022-07-28T17:30:26.326Z,34.65
2022-07-28T17:33:18.046Z,35.34
2022-07-28T17:36:06.319Z,35.36
2022-07-28T17:38:54.362Z,35.92
2022-07-28T17:41:42.491Z,35.79
2022-07-28T17:44:31.958Z,35.86
2022-07-28T17:47:22.313Z,35.81
2022-07-28T17:50:12.929Z,36.27
2022-07-28T17:53:01.623Z,36.87
2022-07-28T17:56:00.002Z,36.87
2022-07-28T17:58:49.505Z,36.74
2022-07-28T18:01:42.382Z,37.65
2022-07-28T18:04:33.320Z,36.91
2022-07-28T18:07:21.283Z,36.60
2022-07-28T18:10:09.936Z,37.45
2022-07-28T18:12:57.983Z,37.20
2022-07-28T18:15:46.486Z,37.63
2022-07-28T18:18:36.017Z,37.62
2022-07-28T18:21:26.308Z,37.49
2022-07-28T18:24:14.730Z,38.09
2022-07-28T18:27:02.909Z,37.93
2022-07-28T18:29:51.003Z,38.16
2022-07-28T18:32:39.033Z,38.52
2022-07-28T18:35:29.447Z,38.62
2022-07-28T18:38:17.483Z,38.97
2022-07-28T18:41:05.530Z,39.18
2022-07-28T18:43:53.521Z,39.22
2022-07-28T18:46:41.637Z,39.98
2022-07-28T18:49:37.680Z,39.94
2022-07-28T18:52:28.183Z,39.76
2022-07-28T18:55:16.255Z,39.79
2022-07-28T18:58:04.313Z,39.89
2022-07-28T19:00:52.392Z,39.96
2022-07-28T19:03:40.534Z,40.15
2022-07-28T19:06:29.140Z,40.21
2022-07-28T19:09:18.762Z,40.05
2022-07-28T19:12:08.003Z,40.49
2022-07-28T19:14:56.104Z,40.57
2022-07-28T19:17:44.165Z,40.46
2022-07-28T19:20:32.269Z,40.46
2022-07-28T19:23:20.555Z,40.68
2022-07-28T19:26:10.000Z,41.17
2022-07-28T19:28:58.523Z,41.15
2022-07-28T19:31:46.716Z,41.22
2022-07-28T19:34:35.325Z,41.59
2022-07-28T19:37:23.462Z,41.12
2022-07-28T19:40:11.850Z,40.98
2022-07-28T19:43:01.359Z,40.78
2022-07-28T19:45:50.573Z,41.11
2022-07-28T19:48:39.330Z,41.18
2022-07-28T19:51:27.968Z,41.63
2022-07-28T19:54:16.315Z,41.32
2022-07-28T19:57:12.243Z,42.41
2022-07-28T20:00:02.876Z,42.29
2022-07-28T20:02:59.791Z,42.69
2022-07-28T20:05:47.951Z,42.75
2022-07-28T20:08:35.961Z,43.95
2022-07-28T20:11:24.328Z,44.29
2022-07-28T20:14:12.674Z,44.57
2022-07-28T20:17:02.196Z,44.40
2022-07-28T20:19:50.227Z,44.81
2022-07-28T20:22:38.409Z,45.28
2022-07-28T20:25:26.476Z,44.67
2022-07-28T20:28:14.465Z,44.24
2022-07-28T20:31:02.584Z,44.42
2022-07-28T20:33:52.699Z,44.44
2022-07-28T20:36:40.941Z,44.39
2022-07-28T20:39:44.298Z,44.33
2022-07-28T20:42:33.329Z,44.43
2022-07-28T20:45:21.781Z,44.12
2022-07-28T20:48:09.812Z,44.45
2022-07-28T20:51:04.739Z,43.78
2022-07-28T20:53:52.779Z,43.40
2022-07-28T20:56:40.761Z,43.25
2022-07-28T20:59:28.816Z,42.45
2022-07-28T21:02:16.968Z,41.91
2022-07-28T21:05:05.524Z,41.90
2022-07-28T21:08:05.184Z,41.94
2022-07-28T21:10:54.668Z,41.69
2022-07-28T21:13:42.754Z,42.27
2022-07-28T21:16:31.974Z,42.00
2022-07-28T21:19:20.147Z,41.83
2022-07-28T21:22:09.317Z,41.38
2022-07-28T21:24:59.089Z,42.05
2022-07-28T21:28:04.748Z,41.93
2022-07-28T21:30:52.773Z,42.41
2022-07-28T21:33:40.879Z,42.19
2022-07-28T21:36:28.963Z,42.42
2022-07-28T21:39:17.151Z,42.51
2022-07-28T21:42:09.306Z,42.29
2022-07-28T21:44:57.669Z,42.34
2022-07-28T21:47:45.725Z,42.08
2022-07-28T21:50:33.726Z,41.69
2022-07-28T21:53:21.963Z,41.74
2022-07-28T21:56:10.078Z,41.68
2022-07-28T21:58:59.498Z,41.87
2022-07-28T22:01:48.311Z,41.19
2022-07-28T22:04:36.493Z,41.17
2022-07-28T22:07:24.531Z,41.17
2022-07-28T22:10:12.618Z,41.24
2022-07-28T22:13:00.880Z,40.64
2022-07-28T22:15:50.260Z,40.68
2022-07-28T22:18:38.310Z,41.09
2022-07-28T22:21:26.320Z,40.45
2022-07-28T22:24:14.458Z,40.50
2022-07-28T22:27:02.750Z,40.17
2022-07-28T22:29:52.052Z,40.66
2022-07-28T22:32:41.835Z,40.32
2022-07-28T22:35:29.829Z,39.98
2022-07-28T22:38:18.184Z,40.42
2022-07-28T22:41:06.326Z,40.07
2022-07-28T22:43:55.076Z,39.92
2022-07-28T22:46:43.242Z,39.51
2022-07-28T22:49:32.718Z,39.54
2022-07-28T22:52:24.707Z,40.02
2022-07-28T22:55:12.780Z,39.42
2022-07-28T22:58:05.925Z,39.61
2022-07-28T23:00:54.073Z,39.73
2022-07-28T23:03:42.991Z,40.18
2022-07-28T23:06:34.858Z,40.51
2022-07-28T23:09:22.941Z,41.04
2022-07-28T23:12:12.355Z,40.70
2022-07-28T23:15:00.353Z,42.11
2022-07-28T23:17:48.560Z,42.28
2022-07-28T23:20:36.592Z,43.21
2022-07-28T23:23:26.010Z,44.63
2022-07-28T23:26:14.057Z,44.60
2022-07-28T23:29:02.825Z,44.85
2022-07-28T23:31:51.185Z,44.75
2022-07-28T23:34:39.289Z,45.40
2022-07-28T23:37:28.685Z,45.91
2022-07-28T23:40:18.185Z,46.59
2022-07-28T23:43:06.349Z,48.46
2022-07-28T23:45:54.387Z,48.08
2022-07-28T23:48:42.392Z,48.09
2022-07-28T23:51:46.731Z,49.23
2022-07-28T23:54:37.329Z,49.09
2022-07-28T23:57:30.788Z,49.26
